createdAt,value
2022-09-28T00:02:07.951Z,93.50
2022-09-28T00:04:36.662Z,93.20
2022-09-28T00:07:05.142Z,92.90
2022-09-28T00:09:35.237Z,92.90
2022-09-28T00:12:03.696Z,92.70
2022-09-28T00:14:32.723Z,93.00
2022-09-28T00:17:01.446Z,93.20
2022-09-28T00:19:29.944Z,93.20
2022-09-28T00:21:58.484Z,93.00
2022-09-28T00:24:28.231Z,92.40
2022-09-28T00:27:01.471Z,92.30
2022-09-28T00:29:33.267Z,92.80
2022-09-28T00:32:04.782Z,92.10
2022-09-28T00:34:37.471Z,92.60
2022-09-28T00:37:09.111Z,92.40
2022-09-28T00:39:38.511Z,92.70
2022-09-28T00:42:16.297Z,92.10
2022-09-28T00:44:50.931Z,92.30
2022-09-28T00:47:51.810Z,92.70
2022-09-28T00:50:30.188Z,92.60
2022-09-28T00:53:07.530Z,93.20
2022-09-28T00:55:44.128Z,92.80
2022-09-28T00:58:20.720Z,93.10
2022-09-28T01:00:50.928Z,93.10
2022-09-28T01:03:19.699Z,92.90
2022-09-28T01:05:50.666Z,93.20
2022-09-28T01:08:23.289Z,93.10
2022-09-28T01:10:52.317Z,93.50
2022-09-28T01:13:24.807Z,94.10
2022-09-28T01:16:08.387Z,93.50
2022-09-28T01:18:48.748Z,93.30
2022-09-28T01:21:21.594Z,93.60
2022-09-28T01:24:15.555Z,93.70
2022-09-28T01:26:56.437Z,93.60
2022-09-28T01:29:46.510Z,93.60
2022-09-28T01:32:26.559Z,93.30
2022-09-28T01:35:04.831Z,93.50
2022-09-28T01:37:46.207Z,93.50
2022-09-28T01:40:18.123Z,93.40
2022-09-28T01:42:52.959Z,92.50
2022-09-28T01:45:34.046Z,92.60
2022-09-28T01:48:07.575Z,93.00
2022-09-28T01:50:41.708Z,93.00
2022-09-28T01:53:19.977Z,92.80
2022-09-28T01:55:54.462Z,92.40
2022-09-28T01:58:33.668Z,92.80
2022-09-28T02:01:10.427Z,92.90
2022-09-28T02:03:47.123Z,92.90
2022-09-28T02:06:26.143Z,92.80
2022-09-28T02:09:01.472Z,92.50
2022-09-28T02:11:30.255Z,92.90
2022-09-28T02:14:05.847Z,93.50
2022-09-28T02:16:41.376Z,93.40
2022-09-28T02:19:14.385Z,93.50
2022-09-28T02:21:50.356Z,93.80
2022-09-28T02:24:25.418Z,93.70
2022-09-28T02:27:00.527Z,93.60
2022-09-28T02:29:30.505Z,93.40
2022-09-28T02:31:59.221Z,93.60
2022-09-28T02:34:27.812Z,93.90
2022-09-28T02:36:56.959Z,93.90
2022-09-28T02:39:26.965Z,93.70
2022-09-28T02:42:13.194Z,93.10
2022-09-28T02:45:02.258Z,93.50
2022-09-28T02:47:53.742Z,93.40
2022-09-28T02:50:37.124Z,93.30
2022-09-28T02:53:53.415Z,93.30
2022-09-28T02:56:47.277Z,93.00
2022-09-28T02:59:34.153Z,93.40
2022-09-28T03:02:16.745Z,93.50
2022-09-28T03:05:02.722Z,94.00
2022-09-28T03:07:38.053Z,93.70
2022-09-28T03:10:17.980Z,93.60
2022-09-28T03:12:49.993Z,94.20
2022-09-28T03:15:24.673Z,94.50
2022-09-28T03:17:54.693Z,94.20
2022-09-28T03:20:23.406Z,94.60
2022-09-28T03:23:19.716Z,94.50
2022-09-28T03:25:40.841Z,94.70
2022-09-28T03:28:09.544Z,94.90
2022-09-28T03:30:37.984Z,95.00
2022-09-28T03:33:08.023Z,95.10
2022-09-28T03:35:36.506Z,95.20
2022-09-28T03:38:04.971Z,94.90
2022-09-28T03:43:02.815Z,94.80
2022-09-28T03:45:31.425Z,95.00
2022-09-28T03:48:00.496Z,95.00
2022-09-28T03:50:30.447Z,94.90
2022-09-28T03:53:05.032Z,94.70
2022-09-28T03:55:33.785Z,94.80
2022-09-28T03:58:02.431Z,94.70
2022-09-28T04:00:31.067Z,94.60
2022-09-28T04:02:59.524Z,94.70
2022-09-28T04:05:29.660Z,94.70
2022-09-28T04:07:58.227Z,94.70
2022-09-28T04:10:27.805Z,94.80
2022-09-28T04:12:57.645Z,94.80
2022-09-28T04:15:26.644Z,94.90
2022-09-28T04:17:55.311Z,94.90
2022-09-28T04:20:23.744Z,95.00
2022-09-28T04:22:53.804Z,95.10
2022-09-28T04:25:22.223Z,94.90
2022-09-28T04:28:08.612Z,95.10
2022-09-28T04:30:37.280Z,95.30
2022-09-28T04:33:05.746Z,95.20
2022-09-28T04:35:34.397Z,95.10
2022-09-28T04:38:04.256Z,95.10
2022-09-28T04:43:02.360Z,94.70
2022-09-28T04:45:30.858Z,95.00
2022-09-28T04:47:59.365Z,95.00
2022-09-28T04:50:28.029Z,94.80
2022-09-28T04:52:56.670Z,94.80
2022-09-28T04:55:28.866Z,95.30
2022-09-28T04:57:57.524Z,94.80
2022-09-28T05:00:25.994Z,94.90
2022-09-28T05:02:55.991Z,95.30
2022-09-28T05:05:24.500Z,94.80
2022-09-28T05:07:53.148Z,95.20
2022-09-28T05:10:21.563Z,95.00
2022-09-28T05:12:51.880Z,95.00
2022-09-28T05:15:20.644Z,95.00
2022-09-28T05:17:49.277Z,95.00
2022-09-28T05:20:17.823Z,95.10
2022-09-28T05:22:46.645Z,94.50
2022-09-28T05:25:15.334Z,94.80
2022-09-28T05:27:43.785Z,95.00
2022-09-28T05:30:14.800Z,95.20
2022-09-28T05:35:13.949Z,94.90
2022-09-28T05:37:42.805Z,95.10
2022-09-28T05:40:12.409Z,94.90
2022-09-28T05:42:41.704Z,94.50
2022-09-28T05:45:12.074Z,94.90
2022-09-28T05:47:46.121Z,94.80
2022-09-28T05:50:16.358Z,95.00
2022-09-28T05:52:45.310Z,94.70
2022-09-28T05:55:14.337Z,94.60
2022-09-28T06:00:13.146Z,94.50
2022-09-28T06:02:43.336Z,94.80
2022-09-28T06:07:40.809Z,94.70
2022-09-28T06:10:10.245Z,94.70
2022-09-28T06:12:38.688Z,94.50
2022-09-28T06:15:09.276Z,94.90
2022-09-28T06:17:37.712Z,95.00
2022-09-28T06:20:09.220Z,95.10
2022-09-28T06:22:37.671Z,95.20
2022-09-28T06:25:08.141Z,95.20
2022-09-28T06:27:37.433Z,95.20
2022-09-28T06:30:07.117Z,95.20
2022-09-28T06:32:35.787Z,95.30
2022-09-28T06:35:04.341Z,95.30
2022-09-28T06:37:34.249Z,95.40
2022-09-28T06:40:03.386Z,95.30
2022-09-28T06:42:31.915Z,95.20
2022-09-28T06:45:00.372Z,95.10
2022-09-28T06:47:29.034Z,95.10
2022-09-28T06:49:57.467Z,94.80
2022-09-28T06:52:26.328Z,94.60
2022-09-28T06:54:56.139Z,94.70
2022-09-28T06:57:24.663Z,94.70
2022-09-28T06:59:53.342Z,94.60
2022-09-28T07:02:22.798Z,94.40
2022-09-28T07:04:51.557Z,94.70
2022-09-28T07:07:20.268Z,94.60
2022-09-28T07:09:52.371Z,94.10
2022-09-28T07:12:25.730Z,94.40
2022-09-28T07:14:57.306Z,93.70
2022-09-28T07:17:26.316Z,93.60
2022-09-28T07:20:00.265Z,93.30
2022-09-28T07:22:41.915Z,93.30
2022-09-28T07:25:12.406Z,93.20
2022-09-28T07:27:42.555Z,93.40
2022-09-28T07:30:12.930Z,93.80
2022-09-28T07:32:41.577Z,93.80
2022-09-28T07:35:10.870Z,93.90
2022-09-28T07:37:39.866Z,94.20
2022-09-28T07:40:27.733Z,93.50
2022-09-28T07:42:57.955Z,93.40
2022-09-28T07:45:26.445Z,94.20
2022-09-28T07:47:57.336Z,93.80
2022-09-28T07:50:25.988Z,94.10
2022-09-28T07:52:54.440Z,93.30
2022-09-28T07:55:23.104Z,93.80
2022-09-28T07:57:59.679Z,93.80
2022-09-28T08:00:33.206Z,93.70
2022-09-28T08:03:03.725Z,93.80
2022-09-28T08:05:32.560Z,92.80
2022-09-28T08:08:01.553Z,93.80
2022-09-28T08:10:30.377Z,93.80
2022-09-28T08:13:04.749Z,93.20
2022-09-28T08:15:37.159Z,93.50
2022-09-28T08:18:06.668Z,94.10
2022-09-28T08:20:53.338Z,94.10
2022-09-28T08:23:23.346Z,93.70
2022-09-28T08:25:54.305Z,92.90
2022-09-28T08:28:26.039Z,93.30
2022-09-28T08:30:55.686Z,92.90
2022-09-28T08:33:24.358Z,92.80
2022-09-28T08:35:58.502Z,93.00
2022-09-28T08:38:27.473Z,93.50
2022-09-28T08:41:15.582Z,93.20
2022-09-28T08:44:07.123Z,92.90
2022-09-28T08:46:42.252Z,92.80
2022-09-28T08:49:26.772Z,93.20
2022-09-28T08:52:02.141Z,92.60
2022-09-28T08:57:42.571Z,93.90
2022-09-28T09:00:22.406Z,93.30
2022-09-28T09:02:52.003Z,93.40
2022-09-28T09:05:36.043Z,93.70
2022-09-28T09:08:33.914Z,93.20
2022-09-28T09:11:19.542Z,93.40
2022-09-28T09:14:17.706Z,93.60
2022-09-28T09:17:01.751Z,93.20
2022-09-28T09:19:53.687Z,92.90
2022-09-28T09:22:41.332Z,92.20
2022-09-28T09:25:22.462Z,93.00
2022-09-28T09:28:27.030Z,92.90
2022-09-28T09:31:13.800Z,91.90
2022-09-28T09:34:33.836Z,91.60
2022-09-28T09:37:28.408Z,92.50
2022-09-28T09:40:26.471Z,92.60
2022-09-28T09:43:28.015Z,92.10
2022-09-28T09:46:14.186Z,93.10
2022-09-28T09:48:56.336Z,92.80
2022-09-28T09:51:36.592Z,92.90
2022-09-28T09:54:15.474Z,93.60
2022-09-28T09:56:51.316Z,92.30
2022-09-28T09:59:26.491Z,93.20
2022-09-28T10:01:57.107Z,93.10
2022-09-28T10:04:33.944Z,92.80
2022-09-28T10:07:07.800Z,92.20
2022-09-28T10:09:43.725Z,91.90
2022-09-28T10:12:16.907Z,91.70
2022-09-28T10:14:46.575Z,92.70
2022-09-28T10:17:20.022Z,92.20
2022-09-28T10:19:50.146Z,91.70
2022-09-28T10:22:24.010Z,92.20
2022-09-28T10:24:57.826Z,91.90
2022-09-28T10:27:31.902Z,92.20
2022-09-28T10:30:04.518Z,92.70
2022-09-28T10:32:41.651Z,91.70
2022-09-28T10:35:24.097Z,92.20
2022-09-28T10:37:58.313Z,92.20
2022-09-28T10:40:43.518Z,91.80
2022-09-28T10:43:24.352Z,91.60
2022-09-28T10:46:03.647Z,93.10
2022-09-28T10:48:49.489Z,91.80
2022-09-28T10:51:20.020Z,92.20
2022-09-28T10:54:02.365Z,92.80
2022-09-28T10:56:37.346Z,92.90
2022-09-28T10:59:32.185Z,92.00
2022-09-28T11:02:10.962Z,92.50
2022-09-28T11:04:44.894Z,93.30
2022-09-28T11:07:21.456Z,93.00
2022-09-28T11:09:52.136Z,92.80
2022-09-28T11:12:24.603Z,91.90
2022-09-28T11:15:01.943Z,91.80
2022-09-28T11:17:34.109Z,92.20
2022-09-28T11:20:30.389Z,92.20
2022-09-28T11:23:02.918Z,91.30
2022-09-28T11:25:32.304Z,91.80
2022-09-28T11:28:04.877Z,91.50
2022-09-28T11:30:41.082Z,90.80
2022-09-28T11:33:20.089Z,91.30
2022-09-28T11:36:00.416Z,92.20
2022-09-28T11:38:41.518Z,91.70
2022-09-28T11:41:38.620Z,91.60
2022-09-28T11:44:35.817Z,92.20
2022-09-28T11:47:39.846Z,92.20
2022-09-28T11:50:24.376Z,91.90
2022-09-28T11:53:11.095Z,90.90
2022-09-28T11:55:48.298Z,91.30
2022-09-28T11:58:27.169Z,92.10
2022-09-28T12:01:02.918Z,92.20
2022-09-28T12:03:40.334Z,92.70
2022-09-28T12:06:16.942Z,92.20
2022-09-28T12:08:54.029Z,92.20
2022-09-28T12:11:29.644Z,92.20
2022-09-28T12:14:04.146Z,92.90
2022-09-28T12:19:37.146Z,92.00
2022-09-28T12:22:14.835Z,92.60
2022-09-28T12:24:48.962Z,91.90
2022-09-28T12:27:26.399Z,92.20
2022-09-28T12:30:05.326Z,93.30
2022-09-28T12:32:40.556Z,92.90
2022-09-28T12:35:16.290Z,92.60
2022-09-28T12:38:11.672Z,92.90
2022-09-28T12:40:53.720Z,93.10
2022-09-28T12:43:59.396Z,92.80
2022-09-28T12:46:46.523Z,93.20
2022-09-28T12:52:34.138Z,92.20
2022-09-28T12:55:31.224Z,92.80
2022-09-28T12:58:08.490Z,92.60
2022-09-28T13:00:50.137Z,91.30
2022-09-28T13:03:53.895Z,91.70
2022-09-28T13:06:48.534Z,92.20
2022-09-28T13:09:22.699Z,92.90
2022-09-28T13:12:16.587Z,92.80
2022-09-28T13:15:29.046Z,92.20
2022-09-28T13:18:13.468Z,91.60
2022-09-28T13:21:01.136Z,91.30
2022-09-28T13:23:35.818Z,91.60
2022-09-28T13:26:20.525Z,91.90
2022-09-28T13:28:51.869Z,92.10
2022-09-28T13:31:31.867Z,91.90
2022-09-28T13:34:07.254Z,90.90
2022-09-28T13:36:47.216Z,92.40
2022-09-28T13:39:49.098Z,91.90
2022-09-28T13:43:00.364Z,92.00
2022-09-28T13:45:59.420Z,92.00
2022-09-28T13:48:48.844Z,92.10
2022-09-28T13:51:41.451Z,91.60
2022-09-28T13:54:31.062Z,92.70
2022-09-28T13:57:14.865Z,92.40
2022-09-28T13:59:58.152Z,92.80
2022-09-28T14:02:36.947Z,92.60
2022-09-28T14:05:45.495Z,92.20
2022-09-28T14:08:36.104Z,92.10
2022-09-28T14:11:56.518Z,92.80
2022-09-28T14:14:49.889Z,92.90
2022-09-28T14:18:02.487Z,93.80
2022-09-28T14:20:33.103Z,93.90
2022-09-28T14:23:43.493Z,93.20
2022-09-28T14:26:42.729Z,93.00
2022-09-28T14:29:28.845Z,92.80
2022-09-28T14:31:59.349Z,92.90
2022-09-28T14:34:35.719Z,93.20
2022-09-28T14:37:36.208Z,93.00
2022-09-28T14:40:38.349Z,92.70
2022-09-28T14:43:28.671Z,93.20
2022-09-28T14:46:34.140Z,93.50
2022-09-28T14:49:06.203Z,93.90
2022-09-28T14:52:04.122Z,94.10
2022-09-28T14:54:50.546Z,93.10
2022-09-28T14:57:25.659Z,93.50
2022-09-28T14:59:56.881Z,93.10
2022-09-28T15:02:32.514Z,93.60
2022-09-28T15:05:16.057Z,94.10
2022-09-28T15:07:48.244Z,94.00
2022-09-28T15:10:32.380Z,93.70
2022-09-28T15:13:05.962Z,93.30
2022-09-28T15:15:38.978Z,93.60
2022-09-28T15:18:33.797Z,93.80
2022-09-28T15:21:02.964Z,93.90
2022-09-28T15:23:37.461Z,93.90
2022-09-28T15:26:08.727Z,94.00
2022-09-28T15:28:45.014Z,92.80
2022-09-28T15:31:20.488Z,93.20
2022-09-28T15:34:06.991Z,93.50
2022-09-28T15:36:40.737Z,93.60
2022-09-28T15:39:16.583Z,93.60
2022-09-28T15:41:49.170Z,94.10
2022-09-28T15:44:33.004Z,93.70
2022-09-28T15:47:14.503Z,93.30
2022-09-28T15:49:57.145Z,92.90
2022-09-28T15:52:36.794Z,93.30
2022-09-28T15:55:19.837Z,93.30
2022-09-28T15:57:49.317Z,93.20
2022-09-28T16:00:29.023Z,93.80
2022-09-28T16:03:04.003Z,93.20
2022-09-28T16:05:39.323Z,94.10
2022-09-28T16:08:21.519Z,93.90
2022-09-28T16:11:07.976Z,94.00
2022-09-28T16:13:38.375Z,93.60
2022-09-28T16:16:16.275Z,93.90
2022-09-28T16:18:50.392Z,93.50
2022-09-28T16:21:45.451Z,93.90
2022-09-28T16:24:23.906Z,94.20
2022-09-28T16:27:00.305Z,94.10
2022-09-28T16:29:40.102Z,94.50
2022-09-28T16:32:41.960Z,94.30
2022-09-28T16:35:23.130Z,94.10
2022-09-28T16:38:12.291Z,93.70
2022-09-28T16:40:43.199Z,93.80
2022-09-28T16:43:23.412Z,93.40
2022-09-28T16:45:52.343Z,93.40
2022-09-28T16:48:23.401Z,92.90
2022-09-28T16:50:53.138Z,93.10
2022-09-28T16:53:39.350Z,93.60
2022-09-28T16:56:09.976Z,93.40
2022-09-28T16:58:39.120Z,93.30
2022-09-28T17:01:10.038Z,93.90
2022-09-28T17:03:42.374Z,93.60
2022-09-28T17:06:14.215Z,94.10
2022-09-28T17:08:43.126Z,94.30
2022-09-28T17:11:22.545Z,94.40
2022-09-28T17:19:24.090Z,94.30
2022-09-28T17:24:22.320Z,93.90
2022-09-28T17:26:52.997Z,94.00
2022-09-28T17:29:21.960Z,94.40
2022-09-28T17:31:50.445Z,94.40
2022-09-28T17:34:20.874Z,94.50
2022-09-28T17:36:50.003Z,94.70
2022-09-28T17:39:20.627Z,95.20
2022-09-28T17:41:49.357Z,94.80
2022-09-28T17:44:19.037Z,94.70
2022-09-28T17:46:49.841Z,94.40
2022-09-28T17:51:50.561Z,94.10
2022-09-28T17:54:21.048Z,94.70
2022-09-28T17:56:49.801Z,94.50
2022-09-28T17:59:19.678Z,94.50
2022-09-28T18:01:48.515Z,94.50
2022-09-28T18:04:46.934Z,94.50
2022-09-28T18:07:08.376Z,94.60
2022-09-28T18:09:37.032Z,94.80
2022-09-28T18:12:07.005Z,94.60
2022-09-28T18:14:36.461Z,94.50
2022-09-28T18:17:05.078Z,94.60
2022-09-28T18:19:33.600Z,94.50
2022-09-28T18:22:02.651Z,94.40
2022-09-28T18:24:32.622Z,94.40
2022-09-28T18:27:01.610Z,94.40
2022-09-28T18:29:33.330Z,94.50
2022-09-28T18:32:03.484Z,94.30
2022-09-28T18:34:31.975Z,94.60
2022-09-28T18:37:00.430Z,94.50
2022-09-28T18:39:29.086Z,94.60
2022-09-28T18:41:59.116Z,94.00
2022-09-28T18:44:27.769Z,94.40
2022-09-28T18:46:56.477Z,94.40
2022-09-28T18:49:25.705Z,94.60
2022-09-28T18:51:54.499Z,94.80
2022-09-28T18:54:23.445Z,95.00
2022-09-28T18:56:55.936Z,95.00
2022-09-28T18:59:26.513Z,95.20
2022-09-28T19:01:55.113Z,95.20
2022-09-28T19:04:24.172Z,95.10
2022-09-28T19:06:54.617Z,95.20
2022-09-28T19:09:27.348Z,95.00
2022-09-28T19:11:55.956Z,95.20
2022-09-28T19:14:25.911Z,95.60
2022-09-28T19:16:54.835Z,95.40
2022-09-28T19:19:23.289Z,95.20
2022-09-28T19:21:51.803Z,95.20
2022-09-28T19:24:21.181Z,95.30
2022-09-28T19:26:50.283Z,95.30
2022-09-28T19:29:18.904Z,95.40
2022-09-28T19:31:50.572Z,95.60
2022-09-28T19:34:19.972Z,95.50
2022-09-28T19:36:48.615Z,95.50
2022-09-28T19:39:17.815Z,95.50
2022-09-28T19:41:49.685Z,95.40
2022-09-28T19:44:24.768Z,95.30
2022-09-28T19:46:57.789Z,95.30
2022-09-28T19:49:33.447Z,95.40
2022-09-28T19:52:12.759Z,95.60
2022-09-28T19:54:44.099Z,95.70
2022-09-28T19:57:16.242Z,95.60
2022-09-28T19:59:49.503Z,95.70
2022-09-28T20:02:22.504Z,95.80
2022-09-28T20:04:51.316Z,95.70
2022-09-28T20:07:19.825Z,95.60
2022-09-28T20:09:48.528Z,95.60
2022-09-28T20:12:17.074Z,95.50
2022-09-28T20:14:45.827Z,95.50
2022-09-28T20:17:14.343Z,95.50
2022-09-28T20:19:44.269Z,95.10
2022-09-28T20:22:13.037Z,95.50
2022-09-28T20:24:41.833Z,95.50
2022-09-28T20:27:10.329Z,95.50
2022-09-28T20:29:39.032Z,95.40
2022-09-28T20:32:07.549Z,95.50
2022-09-28T20:34:36.060Z,95.60
2022-09-28T20:37:06.195Z,95.60
2022-09-28T20:39:34.945Z,95.80
2022-09-28T20:42:03.455Z,95.70
2022-09-28T20:47:01.808Z,95.40
2022-09-28T20:49:31.348Z,95.60
2022-09-28T20:51:59.816Z,95.40
2022-09-28T20:54:29.946Z,95.50
2022-09-28T20:56:58.420Z,95.40
2022-09-28T20:59:27.774Z,95.30
2022-09-28T21:01:56.510Z,95.30
2022-09-28T21:04:25.292Z,95.30
2022-09-28T21:06:53.988Z,95.50
2022-09-28T21:09:22.457Z,95.40
2022-09-28T21:11:52.597Z,95.40
2022-09-28T21:14:21.542Z,95.30
2022-09-28T21:16:50.065Z,95.30
2022-09-28T21:19:18.537Z,95.40
2022-09-28T21:21:47.213Z,95.20
2022-09-28T21:24:15.906Z,95.10
2022-09-28T21:26:44.383Z,95.30
2022-09-28T21:29:16.473Z,95.10
2022-09-28T21:31:47.265Z,95.20
2022-09-28T21:34:20.077Z,95.20
2022-09-28T21:36:51.470Z,95.30
2022-09-28T21:39:21.117Z,95.30
2022-09-28T21:41:49.657Z,95.40
2022-09-28T21:44:19.576Z,94.80
2022-09-28T21:46:48.509Z,95.20
2022-09-28T21:49:17.085Z,95.30
2022-09-28T21:51:47.199Z,95.20
2022-09-28T21:54:16.275Z,95.00
2022-09-28T21:56:45.113Z,95.00
2022-09-28T22:01:44.413Z,94.50
2022-09-28T22:04:13.249Z,94.90
2022-09-28T22:06:41.957Z,95.20
2022-09-28T22:09:10.633Z,95.00
2022-09-28T22:11:39.377Z,94.90
2022-09-28T22:14:08.073Z,94.90
2022-09-28T22:16:36.771Z,94.90
2022-09-28T22:19:06.869Z,95.10
2022-09-28T22:21:35.775Z,94.80
2022-09-28T22:24:08.355Z,94.30
2022-09-28T22:26:39.809Z,94.70
2022-09-28T22:29:10.416Z,94.70
2022-09-28T22:31:41.549Z,95.00
2022-09-28T22:34:11.587Z,94.90
2022-09-28T22:36:40.345Z,95.00
2022-09-28T22:39:08.893Z,95.10
2022-09-28T22:41:37.400Z,95.00
2022-09-28T22:44:06.267Z,95.20
2022-09-28T22:46:34.988Z,95.20
2022-09-28T22:49:03.847Z,95.10
2022-09-28T22:51:33.752Z,95.10
2022-09-28T22:54:02.663Z,95.30
2022-09-28T22:56:31.747Z,95.10
2022-09-28T22:59:00.534Z,95.10
2022-09-28T23:01:31.897Z,95.10
2022-09-28T23:04:00.962Z,95.10
2022-09-28T23:06:31.655Z,95.10
2022-09-28T23:09:02.065Z,95.30
2022-09-28T23:11:31.169Z,95.30
2022-09-28T23:14:00.991Z,95.30
2022-09-28T23:16:31.380Z,95.20
2022-09-28T23:18:59.911Z,95.20
2022-09-28T23:21:29.598Z,95.20
2022-09-28T23:24:02.281Z,95.00
2022-09-28T23:26:34.445Z,94.70
2022-09-28T23:29:03.049Z,95.10
2022-09-28T23:31:33.943Z,95.10
2022-09-28T23:34:05.354Z,95.00
2022-09-28T23:36:35.364Z,95.10
2022-09-28T23:39:06.049Z,95.20
2022-09-28T23:41:34.838Z,95.30
2022-09-28T23:44:03.946Z,95.30
2022-09-28T23:46:32.689Z,95.30
2022-09-28T23:49:01.520Z,95.30
2022-09-28T23:51:30.053Z,95.30
2022-09-28T23:53:59.336Z,95.30
2022-09-28T23:56:29.154Z,95.40
2022-09-28T23:58:58.360Z,95.40
